Terminal Aerodrome Forecast
Issued by NWS Oklahoma City, OK

Home | Current Version | Previous Version | Text Only | Print | Product List | Glossary On
Versions: 1 2 3 4 5 6 7 8 9 10 11 12 13 14 15 16 17 18 19 20 21 22 23 24 25 26 27 28
000
FTUS44 KOUN 310527
TAFOUN
TAF
KOUN 310527Z 3106/0106 06006KT P6SM SCT020 BKN250
     FM311300 08007KT P6SM SCT040 BKN100
     FM311500 12007KT P6SM VCTS SCT040CB BKN120 BKN200
     FM312200 09005KT P6SM BKN040 BKN100 OVC200=

USA.gov is the U.S. government's official web portal to all federal, state and local government web resources and services.